Diest, Belgium
Current Conditions -  °F | °C
As of 10:25 AM on Tuesday 21 Oct 2014 (Local Time) from EBDT Reporting Station
Broken Clouds Broken Clouds  
Wind Chill: 55°   Ceiling: 4500
Heat Index: 55°   Visibility: 6mi
Dew Point: 50°   Wind: 14mph
Humidity: 82%   Direction: 200°SSW
Pressure: 29.71"   Gusts: NA
Location:  50.98°N, 5.05°E
Report Text: EBDT 210825Z 20012KT 9999 FEW017 BKN045 13/10 Q1006 BLU
Loading
Personal Weather Stations






























Interactive Weather Map
Tropical Storm Tracking
New forecast layout! Learn more

10-Day Weather Forecast

Advertisements
Track Severe Weather on mobile